Results by/Résultats par Info:(613) 673-4909

                                     K-TOWN TRIATHLON

                                  Sunday August 2nd, 1998
                           Confederation Park, Kingston, Ontario

                         Military Results - Long Course Triathlon

  -----FINAL----- ----------------------- ------------ -------------------- ----            2 km                       56.5 km                   15 km
                                                       Category                     --------SWIM----------    ----------BIKE--------    ---------RUN----------
    Pos     Time  Name                    City         Plc/Total Category     #      Cat  Ovr  Time  /100m     Cat Ovr Time  km/hr      Cat  Ovr  Time     km
  ------  ------- ----------------------- ------------ -------------------- ----    ----------------------    ----------------------    ----------------------
    1     2:56:46 Chris BOTHEN            Trenton        1/6   M30 - 34      535    1      2   26:46  1:21    1      1 1:28:45 38.2     3      2 1:01:16  4:06 
    2     3:04:25 Steve BUJOLD            Gatineau       2/6   M30 - 34      526    6      6   29:19  1:28    2      2 1:30:45 37.4     6      8 1:04:22  4:18 
    3     3:06:11 Gilles DEMERS           Shearwater     1/4   M25 - 29      529    3      8   31:19  1:34    4      5 1:33:13 36.4     5      3 1:01:40  4:07 
    4     3:06:24 Eric HARDY              Val-Belair     2/4   M25 - 29      524    4     11   32:19  1:37    2      3 1:30:55 37.3     6      5 1:03:11  4:13 
    5     3:07:34 Robert CAMPBELL         Alexandria     1/1   M20 - 24      523    2      7   30:31  1:32    3      7 1:35:15 35.6     2      4 1:01:49  4:08 
    6     3:08:01 Marty RAYMOND           Gloucester     1/3   M35 - 39      539    2      1   26:26  1:20    6     10 1:37:46 34.7     6      6 1:03:50  4:16 
    7     3:10:53 Christian DROUIN        Kingston       3/6   M30 - 34      530    4      4   27:43  1:24    5      4 1:32:18 36.7     10    11 1:10:53  4:44 
    8     3:10:56 Roger GIRARD            Hull           1/2   M40 - 44      541    3      9   31:25  1:35    2      8 1:35:20 35.6     3      7 1:04:11  4:17 
    9     3:14:22 Sandy SCHWAB            Kingston       4/6   M30 - 34      540    3      3   27:01  1:22    7      6 1:35:01 35.7     14    14 1:12:21  4:50 
   10     3:15:22 Nikolas GIZDIC          Kingston       3/4   M25 - 29      536    7     13   34:39  1:44    9     11 1:40:03 33.9     4      1 1:00:41  4:03 
   11     3:19:12 Caroline CHOUINARD      Courcelette    1/2   W25 - 29      521    1      5   27:46  1:24    1     12 1:41:22 33.4     2     10 1:10:05  4:41 
   12     3:26:46 Dan LARCHE              Victoria       4/4   M25 - 29      528    8     16   37:07  1:52    6      9 1:36:35 35.1     8     15 1:13:05  4:53 
   13     3:31:01 Monty PAISLEY           Ottawa         2/3   M35 - 39      890    19    18   38:54  1:57    11    13 1:44:31 32.4     8      9 1:07:37  4:31 
   14     3:32:31 Ariane MARTIN           Kingston       2/2   W25 - 29      533    3     10   31:52  1:36    3     14 1:44:32 32.4     4     16 1:16:08  5:05 
   15     3:37:30 Maryse AYOTTE           Trenton        1/1   W30 - 34      534    5     15   35:52  1:48    3     16 1:50:42 30.6     1     12 1:10:56  4:44 
   16     3:41:02 Mike SULLIVAN           Oromocto       3/3   M35 - 39      538    16    17   37:48  1:54    17    18 1:52:09 30.2     13    13 1:11:06  4:45 
   17     3:45:57 Robert WATT             Kingston       5/6   M30 - 34      537    22    19   39:19  1:58    18    15 1:46:55 31.7     21    17 1:19:44  5:19 
   18     3:52:28 Jim PENMAN              Halifax        1/1   M45 - 49      527    6     20   40:20  2:01    6     17 1:51:34 30.4     5     18 1:20:35  5:23 
   19     3:52:46 Louis CYR               Kingston       2/2   M40 - 44      522    6     14   35:06  1:46    9     19 1:53:34 29.9     12    19 1:24:08  5:37 
   20     4:22:06 Norman BOURGEOIS        Frankford      6/6   M30 - 34      525    10    12   32:51  1:39    24    20 2:09:00 26.3     23    20 1:40:16  6:42 
Back to the Sportstats Home Page